Time;durP1;ratioP1;P1;durP2;ratioP2;P2;SDS_P1;SDS_P2;PMS_P1;PMS_P2;Temp;Humidity;BMP_temperature;BMP_pressure;BME280_temperature;BME280_humidity;BME280_pressure;Samples;Min_cycle;Max_cycle;Signal;HPM_P1;HPM_P2
2023/06/05 00:01:11;;;;;;;4.65;2.60;;;20.60;80.50;;;;;;5072931;28;20029;-69
2023/06/05 00:03:39;;;;;;;3.67;2.05;;;20.60;80.40;;;;;;5073298;28;20025;-69
2023/06/05 00:06:04;;;;;;;5.43;2.58;;;20.70;80.40;;;;;;5072715;28;20033;-69
2023/06/05 00:08:30;;;;;;;6.63;2.38;;;20.60;80.20;;;;;;5072982;28;20158;-69
2023/06/05 00:10:56;;;;;;;5.70;1.95;;;20.60;80.30;;;;;;5071750;28;20099;-69
2023/06/05 00:13:21;;;;;;;5.80;2.50;;;20.60;80.50;;;;;;5073102;28;20555;-69
2023/06/05 00:15:47;;;;;;;4.28;2.58;;;20.50;80.50;;;;;;5072946;28;20497;-69
2023/06/05 00:18:14;;;;;;;4.32;2.38;;;20.50;80.60;;;;;;5072915;28;20478;-69
2023/06/05 00:20:39;;;;;;;4.10;2.20;;;20.40;80.70;;;;;;5072686;28;20028;-69
2023/06/05 00:23:05;;;;;;;11.18;2.65;;;20.50;80.80;;;;;;5072633;28;20107;-69
2023/06/05 00:25:31;;;;;;;4.47;2.70;;;20.40;80.90;;;;;;5071471;28;20016;-69
2023/06/05 00:27:56;;;;;;;5.70;2.72;;;20.40;80.90;;;;;;5072785;28;20041;-69
2023/06/05 00:30:22;;;;;;;4.47;2.53;;;20.40;81.00;;;;;;5072770;28;20425;-69
2023/06/05 00:32:47;;;;;;;7.03;2.67;;;20.40;80.80;;;;;;5072969;28;20493;-69
2023/06/05 00:35:13;;;;;;;5.68;2.65;;;20.40;80.80;;;;;;5072627;28;20486;-69
2023/06/05 00:37:39;;;;;;;9.40;2.95;;;20.30;81.00;;;;;;5072652;28;20031;-69
2023/06/05 00:40:06;;;;;;;5.20;2.83;;;20.30;80.90;;;;;;5072862;28;20100;-69
2023/06/05 00:42:31;;;;;;;6.30;2.60;;;20.30;81.00;;;;;;5075436;28;20032;-69
2023/06/05 00:44:57;;;;;;;5.55;2.67;;;20.20;81.00;;;;;;5076501;28;20017;-69
2023/06/05 00:47:23;;;;;;;5.40;2.50;;;20.20;81.00;;;;;;5076428;28;20028;-69
2023/06/05 00:49:49;;;;;;;5.32;3.08;;;20.30;80.90;;;;;;5075163;28;20169;-69
2023/06/05 00:52:16;;;;;;;4.63;2.83;;;20.20;81.00;;;;;;5074882;28;20027;-69
2023/06/05 00:54:41;;;;;;;4.38;2.53;;;20.20;81.10;;;;;;5075094;28;20009;-69
2023/06/05 00:57:08;;;;;;;5.65;2.83;;;20.20;81.10;;;;;;5076304;28;20102;-69
2023/06/05 00:59:35;;;;;;;7.00;2.50;;;20.20;81.10;;;;;;5076117;28;20024;-69
2023/06/05 01:02:02;;;;;;;4.60;2.45;;;20.10;81.60;;;;;;5076126;28;20086;-70
2023/06/05 01:04:32;;;;;;;4.57;3.05;;;20.20;81.40;;;;;;5075858;28;20477;-69
2023/06/05 01:06:59;;;;;;;5.90;2.85;;;20.10;81.40;;;;;;5076219;28;20020;-69
2023/06/05 01:09:25;;;;;;;4.55;2.28;;;20.10;81.30;;;;;;5076013;28;20016;-69
2023/06/05 01:11:58;;;;;;;5.70;2.67;;;20.00;81.50;;;;;;5076140;28;20023;-69
2023/06/05 01:14:30;;;;;;;5.43;3.15;;;20.00;81.70;;;;;;5075775;28;20030;-70
2023/06/05 01:17:00;;;;;;;6.82;2.90;;;19.90;81.70;;;;;;5051993;28;20018;-69
2023/06/05 01:19:28;;;;;;;4.65;2.80;;;20.00;81.50;;;;;;5035134;28;20025;-69
2023/06/05 01:21:58;;;;;;;6.72;2.88;;;19.90;81.60;;;;;;5034555;28;20497;-69
2023/06/05 01:24:25;;;;;;;5.50;2.97;;;19.90;81.60;;;;;;5035547;28;20067;-68
2023/06/05 01:27:12;;;;;;;4.47;3.15;;;19.90;81.80;;;;;;5036019;28;20079;-69
2023/06/05 01:29:52;;;;;;;5.28;3.10;;;19.90;81.80;;;;;;5034414;28;20041;-69
2023/06/05 01:32:37;;;;;;;5.28;2.92;;;19.80;81.90;;;;;;5035894;28;20024;-69
2023/06/05 01:35:10;;;;;;;5.50;3.05;;;19.80;81.90;;;;;;5035505;28;20033;-69
2023/06/05 01:37:40;;;;;;;4.35;2.83;;;19.80;81.90;;;;;;5035608;28;20383;-70
2023/06/05 01:40:17;;;;;;;5.10;2.58;;;19.80;82.00;;;;;;5035445;28;20037;-69
2023/06/05 01:42:44;;;;;;;5.53;2.97;;;19.80;81.90;;;;;;5035329;28;20368;-69
2023/06/05 01:45:11;;;;;;;7.95;3.03;;;19.70;81.90;;;;;;5035554;28;20026;-69
2023/06/05 01:47:38;;;;;;;6.40;2.65;;;19.70;82.00;;;;;;5035249;28;20116;-70
2023/06/05 01:50:05;;;;;;;6.70;3.35;;;19.60;82.00;;;;;;5035398;28;20050;-69
2023/06/05 01:52:32;;;;;;;7.72;3.08;;;19.70;82.00;;;;;;5034490;28;20071;-69
2023/06/05 01:54:59;;;;;;;6.05;2.70;;;19.60;81.70;;;;;;5034805;28;20474;-69
2023/06/05 01:57:27;;;;;;;6.28;3.03;;;19.70;81.70;;;;;;5035579;28;20176;-70
2023/06/05 01:59:53;;;;;;;5.93;2.88;;;19.60;82.50;;;;;;5035115;28;20018;-69
2023/06/05 02:02:19;;;;;;;4.35;3.00;;;19.60;81.80;;;;;;5035003;28;20075;-69
2023/06/05 02:04:47;;;;;;;5.60;3.20;;;19.60;81.80;;;;;;5034815;28;20096;-70
2023/06/05 02:07:14;;;;;;;7.38;3.20;;;19.60;81.90;;;;;;5035210;28;20030;-69
2023/06/05 02:09:43;;;;;;;4.28;2.85;;;19.50;81.70;;;;;;5034951;28;20033;-70
2023/06/05 02:12:08;;;;;;;4.65;3.10;;;19.50;81.90;;;;;;5033853;28;20108;-70
2023/06/05 02:14:37;;;;;;;5.47;3.25;;;19.50;82.10;;;;;;5034724;28;20061;-70
2023/06/05 02:17:06;;;;;;;4.68;3.38;;;19.40;82.10;;;;;;5034821;28;20112;-70
2023/06/05 02:19:32;;;;;;;6.88;3.20;;;19.50;82.00;;;;;;5034806;28;20022;-70
2023/06/05 02:21:57;;;;;;;5.50;3.10;;;19.40;82.10;;;;;;5034797;28;20116;-70
2023/06/05 02:24:24;;;;;;;5.85;3.47;;;19.30;82.20;;;;;;5034688;28;20057;-70
2023/06/05 02:26:50;;;;;;;5.30;3.38;;;19.40;82.20;;;;;;5034816;28;20490;-70
2023/06/05 02:29:16;;;;;;;4.78;3.10;;;19.40;82.10;;;;;;5033192;28;20033;-69
2023/06/05 02:31:41;;;;;;;7.85;2.65;;;19.30;82.30;;;;;;5034272;28;20463;-70
2023/06/05 02:34:07;;;;;;;5.10;3.50;;;19.30;82.10;;;;;;5034206;28;20104;-70
2023/06/05 02:36:33;;;;;;;5.88;3.20;;;19.30;81.90;;;;;;5034487;28;20029;-70
2023/06/05 02:39:04;;;;;;;7.78;3.50;;;19.30;82.00;;;;;;5034350;28;20048;-70
2023/06/05 02:41:30;;;;;;;6.73;3.20;;;19.30;82.00;;;;;;5034317;28;20017;-70
2023/06/05 02:43:56;;;;;;;6.72;3.25;;;19.30;81.90;;;;;;5034332;28;20283;-69
2023/06/05 02:46:22;;;;;;;5.22;3.42;;;19.30;82.10;;;;;;5034162;28;20483;-69
2023/06/05 02:48:48;;;;;;;7.00;3.17;;;19.30;82.30;;;;;;5034254;28;20029;-69
2023/06/05 02:51:13;;;;;;;7.03;3.47;;;19.20;82.30;;;;;;5034182;28;20047;-69
2023/06/05 02:53:39;;;;;;;7.70;3.55;;;19.20;82.30;;;;;;5034315;28;20148;-69
2023/06/05 02:56:05;;;;;;;5.03;3.20;;;19.20;82.30;;;;;;5034102;28;20053;-69
2023/06/05 02:58:33;;;;;;;6.53;3.67;;;19.20;82.40;;;;;;5034256;28;20026;-69
2023/06/05 03:01:02;;;;;;;5.38;3.55;;;19.10;82.30;;;;;;5033618;28;20048;-69
2023/06/05 03:03:31;;;;;;;8.70;3.60;;;19.10;82.20;;;;;;5034023;28;20048;-69
2023/06/05 03:06:04;;;;;;;5.13;3.30;;;19.10;82.70;;;;;;5033646;28;20100;-69
2023/06/05 03:08:34;;;;;;;5.65;3.22;;;19.00;82.70;;;;;;5034107;28;20092;-69
2023/06/05 03:11:01;;;;;;;4.97;3.58;;;19.00;82.80;;;;;;5033767;28;20021;-69
2023/06/05 03:13:26;;;;;;;6.00;3.47;;;19.00;82.80;;;;;;5034006;28;20075;-69
2023/06/05 03:15:53;;;;;;;7.75;3.25;;;19.00;82.90;;;;;;5033493;28;20021;-69
2023/06/05 03:18:20;;;;;;;7.85;3.80;;;19.00;82.70;;;;;;5033906;28;20029;-69
2023/06/05 03:20:47;;;;;;;5.88;3.80;;;19.00;82.80;;;;;;5033855;28;20014;-69
2023/06/05 03:23:13;;;;;;;7.20;3.72;;;18.90;83.10;;;;;;5033664;28;20061;-69
2023/06/05 03:25:38;;;;;;;5.72;3.55;;;18.90;82.90;;;;;;5032229;28;20061;-69
2023/06/05 03:28:04;;;;;;;6.50;3.58;;;18.90;82.90;;;;;;5033411;28;20042;-70
2023/06/05 03:30:29;;;;;;;6.63;3.47;;;18.90;83.20;;;;;;5033215;28;20459;-69
2023/06/05 03:32:55;;;;;;;6.25;3.85;;;18.80;83.50;;;;;;5033432;28;20071;-69
2023/06/05 03:35:21;;;;;;;5.07;3.35;;;18.80;83.60;;;;;;5033505;28;20486;-69
2023/06/05 03:37:46;;;;;;;5.70;3.85;;;18.80;83.70;;;;;;5033368;28;20036;-69
2023/06/05 03:40:12;;;;;;;6.18;3.92;;;18.80;83.50;;;;;;5033554;28;20047;-69
2023/06/05 03:42:37;;;;;;;6.00;4.22;;;18.80;83.60;;;;;;5033353;28;20102;-69
2023/06/05 03:45:04;;;;;;;8.70;4.22;;;18.70;83.90;;;;;;5033014;28;20028;-69
2023/06/05 03:47:29;;;;;;;6.30;4.20;;;18.70;84.20;;;;;;5031913;28;20433;-70
2023/06/05 03:49:55;;;;;;;7.80;4.40;;;18.60;84.30;;;;;;5033270;28;20490;-69
2023/06/05 03:52:24;;;;;;;5.25;4.30;;;18.60;84.70;;;;;;5033308;28;20018;-69
2023/06/05 03:54:53;;;;;;;5.35;4.80;;;18.50;84.90;;;;;;5033113;28;20029;-69
2023/06/05 03:57:20;;;;;;;8.55;4.80;;;18.60;84.80;;;;;;5033128;28;20109;-69
2023/06/05 03:59:46;;;;;;;6.57;4.28;;;18.60;84.90;;;;;;5032941;28;20091;-69
2023/06/05 04:02:12;;;;;;;8.23;4.28;;;18.50;85.00;;;;;;5032960;28;20125;-69
2023/06/05 04:04:38;;;;;;;7.55;4.47;;;18.50;85.20;;;;;;5031829;28;20029;-69
2023/06/05 04:07:05;;;;;;;10.13;4.63;;;18.50;85.30;;;;;;5033017;28;20463;-69
2023/06/05 04:09:31;;;;;;;9.38;5.10;;;18.50;85.50;;;;;;5033166;28;20022;-69
2023/06/05 04:11:57;;;;;;;5.75;4.20;;;18.40;85.60;;;;;;5032998;28;20032;-69
2023/06/05 04:14:23;;;;;;;6.32;4.30;;;18.40;85.70;;;;;;5031361;28;20104;-68
2023/06/05 04:16:49;;;;;;;7.95;4.63;;;18.50;85.20;;;;;;5034780;28;20101;-70
2023/06/05 04:19:14;;;;;;;6.68;4.10;;;18.50;85.30;;;;;;5037309;28;20021;-70
2023/06/05 04:21:41;;;;;;;6.88;4.25;;;18.50;85.30;;;;;;5036907;28;20040;-70
2023/06/05 04:24:09;;;;;;;7.03;4.28;;;18.50;85.40;;;;;;5036888;28;20359;-70
2023/06/05 04:26:36;;;;;;;5.72;4.38;;;18.50;85.30;;;;;;5036699;28;20030;-70
2023/06/05 04:29:02;;;;;;;6.97;4.90;;;18.50;85.30;;;;;;5036456;28;20041;-70
2023/06/05 04:31:32;;;;;;;6.93;4.88;;;18.50;84.90;;;;;;5036930;28;20020;-69
2023/06/05 04:33:58;;;;;;;5.80;4.50;;;18.50;84.90;;;;;;5037083;28;20030;-69
2023/06/05 04:36:27;;;;;;;7.07;4.65;;;18.40;85.20;;;;;;5035589;28;20032;-69
2023/06/05 04:38:53;;;;;;;7.38;4.65;;;18.50;85.00;;;;;;5036666;28;20028;-69
2023/06/05 04:41:18;;;;;;;9.02;5.13;;;18.50;85.10;;;;;;5036410;28;20843;-69
2023/06/05 04:43:44;;;;;;;6.22;4.35;;;18.50;84.80;;;;;;5041727;28;20087;-69
2023/06/05 04:46:09;;;;;;;9.40;4.78;;;18.50;84.90;;;;;;5035922;28;20033;-69
2023/06/05 04:48:36;;;;;;;6.90;4.93;;;18.50;85.00;;;;;;5035799;28;20021;-70
2023/06/05 04:51:02;;;;;;;5.40;4.72;;;18.40;85.20;;;;;;5038499;28;20045;-69
2023/06/05 04:53:28;;;;;;;10.45;5.07;;;18.40;85.10;;;;;;5051055;28;20025;-72
2023/06/05 04:55:55;;;;;;;7.03;5.03;;;18.40;85.20;;;;;;5052623;28;20078;-69
2023/06/05 04:58:21;;;;;;;6.68;4.82;;;18.40;85.40;;;;;;5036140;28;20032;-69
2023/06/05 05:00:49;;;;;;;6.65;4.93;;;18.30;85.80;;;;;;5036158;28;20076;-71
2023/06/05 05:03:16;;;;;;;6.45;4.57;;;18.30;85.70;;;;;;5042800;28;20117;-72
2023/06/05 05:05:41;;;;;;;6.97;5.20;;;18.30;85.50;;;;;;5036276;28;20108;-71
2023/06/05 05:08:07;;;;;;;7.38;5.07;;;18.30;86.00;;;;;;5035840;28;20075;-70
2023/06/05 05:10:32;;;;;;;11.70;5.50;;;18.30;85.80;;;;;;5034267;28;20071;-71
2023/06/05 05:13:01;;;;;;;6.57;5.95;;;18.40;85.50;;;;;;5042567;28;20024;-72
2023/06/05 05:15:28;;;;;;;8.15;5.30;;;18.50;85.30;;;;;;5055735;28;20040;-71
2023/06/05 05:17:56;;;;;;;9.18;5.63;;;18.50;85.30;;;;;;5048743;28;20036;-71
2023/06/05 05:20:22;;;;;;;13.20;5.50;;;18.50;85.50;;;;;;5044278;28;20068;-70
2023/06/05 05:22:48;;;;;;;12.35;6.45;;;18.50;85.40;;;;;;5038515;28;20048;-70
2023/06/05 05:25:14;;;;;;;12.45;6.63;;;18.50;85.30;;;;;;5037621;28;20474;-70
2023/06/05 05:27:39;;;;;;;9.27;6.10;;;18.40;85.40;;;;;;5043577;28;20030;-71
2023/06/05 05:30:07;;;;;;;8.90;6.20;;;18.40;85.50;;;;;;5043980;28;20030;-70
2023/06/05 05:32:32;;;;;;;7.60;5.38;;;18.40;85.70;;;;;;5038922;28;20055;-70
2023/06/05 05:34:58;;;;;;;8.20;6.18;;;18.40;85.60;;;;;;5042229;28;20056;-71
2023/06/05 05:37:25;;;;;;;9.38;6.13;;;18.50;86.10;;;;;;5039937;28;20059;-70
2023/06/05 05:39:51;;;;;;;6.72;5.70;;;18.60;85.60;;;;;;5035487;28;20375;-70
2023/06/05 05:42:17;;;;;;;10.25;5.22;;;18.60;85.20;;;;;;5044797;28;20044;-69
2023/06/05 05:44:43;;;;;;;8.73;5.10;;;18.70;84.50;;;;;;5047100;28;20025;-70
2023/06/05 05:47:10;;;;;;;10.38;5.35;;;18.80;84.40;;;;;;5048836;28;20122;-70
2023/06/05 05:49:35;;;;;;;5.88;5.18;;;18.90;84.60;;;;;;5047573;28;20410;-69
2023/06/05 05:52:01;;;;;;;5.47;4.78;;;19.00;84.00;;;;;;5036156;28;20033;-69
2023/06/05 05:54:27;;;;;;;6.47;5.20;;;19.10;83.20;;;;;;5043237;28;20033;-70
2023/06/05 05:56:55;;;;;;;9.48;4.68;;;19.20;82.70;;;;;;5038987;28;20047;-68
2023/06/05 05:59:21;;;;;;;6.20;4.90;;;19.30;82.10;;;;;;5034874;28;20075;-69
2023/06/05 06:01:48;;;;;;;6.28;5.47;;;19.30;81.50;;;;;;5058672;28;20040;-73
2023/06/05 06:04:16;;;;;;;8.05;5.82;;;19.40;81.70;;;;;;5041531;28;20021;-69
2023/06/05 06:06:42;;;;;;;6.15;4.60;;;19.40;81.10;;;;;;5039524;28;20057;-70
2023/06/05 06:09:08;;;;;;;8.40;5.30;;;19.50;80.90;;;;;;5053928;28;20048;-70
2023/06/05 06:11:36;;;;;;;7.95;5.28;;;19.60;80.40;;;;;;5052764;28;20466;-71
2023/06/05 06:14:01;;;;;;;6.30;4.80;;;19.60;80.10;;;;;;5036422;28;20028;-72
2023/06/05 06:16:27;;;;;;;6.60;4.90;;;19.70;80.40;;;;;;5047114;28;20395;-72
2023/06/05 06:18:55;;;;;;;6.32;5.15;;;19.70;80.00;;;;;;5044537;28;20025;-72
2023/06/05 06:21:20;;;;;;;8.45;4.60;;;19.80;79.80;;;;;;5050672;28;20025;-72
2023/06/05 06:23:47;;;;;;;6.85;5.00;;;19.90;79.40;;;;;;5038080;28;20094;-72
2023/06/05 06:26:14;;;;;;;7.22;4.70;;;19.90;79.00;;;;;;5033422;28;20048;-72
2023/06/05 06:28:40;;;;;;;6.88;5.07;;;20.00;78.80;;;;;;5034618;28;20071;-72
2023/06/05 06:31:06;;;;;;;8.00;5.50;;;20.00;78.50;;;;;;5034615;28;20032;-73
2023/06/05 06:33:32;;;;;;;7.70;5.13;;;20.10;78.60;;;;;;5034652;28;20021;-73
2023/06/05 06:36:00;;;;;;;6.93;4.70;;;20.10;78.80;;;;;;5034556;28;20386;-72
2023/06/05 06:38:31;;;;;;;7.68;4.78;;;20.20;78.50;;;;;;5032576;28;20475;-72
2023/06/05 06:40:57;;;;;;;8.18;4.60;;;20.20;78.10;;;;;;5032290;28;20095;-71
2023/06/05 06:43:23;;;;;;;7.13;4.85;;;20.20;78.00;;;;;;5045947;28;20397;-72
2023/06/05 06:45:50;;;;;;;9.70;4.97;;;20.30;77.90;;;;;;5062807;28;20037;-72
2023/06/05 06:48:20;;;;;;;7.32;4.40;;;20.30;78.40;;;;;;5054132;28;20021;-73
2023/06/05 06:50:46;;;;;;;8.55;4.75;;;20.40;78.30;;;;;;5053966;28;20017;-72
2023/06/05 06:53:11;;;;;;;6.68;4.68;;;20.40;78.60;;;;;;5052269;28;20033;-72
2023/06/05 06:55:37;;;;;;;6.75;5.07;;;20.50;78.70;;;;;;5053261;28;20351;-72
2023/06/05 06:58:04;;;;;;;7.43;4.50;;;20.60;77.60;;;;;;5042654;28;20041;-72
2023/06/05 07:00:30;;;;;;;7.47;4.93;;;20.60;78.10;;;;;;5046087;28;20023;-72
2023/06/05 07:02:56;;;;;;;8.40;5.43;;;20.70;78.20;;;;;;5053791;28;20037;-72
2023/06/05 07:05:22;;;;;;;7.82;5.15;;;20.70;78.00;;;;;;5051188;28;20119;-72
2023/06/05 07:07:48;;;;;;;8.57;4.68;;;20.70;78.40;;;;;;5053134;28;20020;-72
2023/06/05 07:10:13;;;;;;;6.75;4.28;;;20.80;77.70;;;;;;5053615;28;20036;-72
2023/06/05 07:12:39;;;;;;;7.40;5.32;;;20.80;77.70;;;;;;5053845;28;20032;-72
2023/06/05 07:15:05;;;;;;;8.00;4.88;;;20.80;77.70;;;;;;5053649;28;20029;-71
2023/06/05 07:17:31;;;;;;;9.32;5.13;;;20.90;77.70;;;;;;5053504;28;20427;-72
2023/06/05 07:19:57;;;;;;;6.85;4.57;;;21.00;77.50;;;;;;5053536;28;20025;-71
2023/06/05 07:22:24;;;;;;;6.97;4.75;;;21.00;77.70;;;;;;5053147;28;20104;-72
2023/06/05 07:24:50;;;;;;;7.75;5.13;;;21.10;77.60;;;;;;5053419;28;20020;-72
2023/06/05 07:27:16;;;;;;;6.75;5.38;;;21.10;77.00;;;;;;5053312;28;20505;-72
2023/06/05 07:29:41;;;;;;;5.53;5.03;;;21.10;77.30;;;;;;5053583;28;20492;-72
2023/06/05 07:32:07;;;;;;;8.55;4.53;;;21.20;77.00;;;;;;5053469;28;20490;-72
2023/06/05 07:34:34;;;;;;;8.20;4.88;;;21.20;77.20;;;;;;5041680;28;20036;-73
2023/06/05 07:37:00;;;;;;;7.18;4.80;;;21.20;76.80;;;;;;5037549;28;20124;-72
2023/06/05 07:39:26;;;;;;;7.85;4.82;;;21.30;76.70;;;;;;5033276;28;20470;-72
2023/06/05 07:41:52;;;;;;;7.50;4.82;;;21.30;76.50;;;;;;5050161;28;20039;-71
2023/06/05 07:44:21;;;;;;;6.82;4.97;;;21.40;76.50;;;;;;5053274;28;20103;-73
2023/06/05 07:46:48;;;;;;;9.30;5.40;;;21.40;76.40;;;;;;5053073;28;20359;-72
2023/06/05 07:49:15;;;;;;;7.45;5.05;;;21.50;76.00;;;;;;5039001;28;20038;-71
2023/06/05 07:51:42;;;;;;;9.65;4.95;;;21.40;76.00;;;;;;5035912;28;20025;-72
2023/06/05 07:54:09;;;;;;;6.32;4.30;;;21.50;76.00;;;;;;5034190;28;20061;-71
2023/06/05 07:56:35;;;;;;;6.85;4.10;;;21.50;76.40;;;;;;5034185;28;20025;-72
2023/06/05 07:59:02;;;;;;;6.60;5.07;;;21.50;76.10;;;;;;5034037;28;20099;-72
2023/06/05 08:01:29;;;;;;;7.93;5.10;;;21.50;76.50;;;;;;5047509;28;20021;-71
2023/06/05 08:03:55;;;;;;;7.10;4.35;;;21.60;76.60;;;;;;5039150;28;20083;-70
2023/06/05 08:06:21;;;;;;;7.32;4.88;;;21.60;76.60;;;;;;5032740;28;20072;-70
2023/06/05 08:08:46;;;;;;;7.85;4.78;;;21.60;76.70;;;;;;5032925;28;20029;-70
2023/06/05 08:11:12;;;;;;;7.40;5.32;;;21.60;76.70;;;;;;5032277;28;20025;-71
2023/06/05 08:13:39;;;;;;;6.80;4.50;;;21.70;76.00;;;;;;5032735;28;20022;-72
2023/06/05 08:16:05;;;;;;;7.82;3.97;;;21.80;76.20;;;;;;5034606;28;20020;-72
2023/06/05 08:18:31;;;;;;;5.72;4.50;;;21.70;76.20;;;;;;5037881;28;20506;-72
2023/06/05 08:20:56;;;;;;;4.57;3.58;;;21.70;76.10;;;;;;5042477;28;20494;-73
2023/06/05 08:23:22;;;;;;;5.38;3.53;;;21.80;76.80;;;;;;5051178;28;20037;-71
2023/06/05 08:25:48;;;;;;;9.75;5.05;;;21.80;76.40;;;;;;5043874;28;20056;-76
2023/06/05 08:28:15;;;;;;;5.72;3.38;;;21.80;76.40;;;;;;5043063;28;20069;-75
2023/06/05 08:30:41;;;;;;;10.85;5.05;;;21.80;76.50;;;;;;5050566;28;20488;-76
2023/06/05 08:33:06;;;;;;;7.40;5.07;;;21.80;75.80;;;;;;5061412;28;20025;-76
2023/06/05 08:35:32;;;;;;;6.38;4.95;;;21.90;75.70;;;;;;5055079;28;20025;-75
2023/06/05 08:37:58;;;;;;;4.93;4.05;;;21.90;75.90;;;;;;5063146;28;20033;-76
2023/06/05 08:40:28;;;;;;;10.38;5.85;;;21.90;76.40;;;;;;5049902;28;20374;-75
2023/06/05 08:42:54;;;;;;;6.32;3.10;;;21.90;76.00;;;;;;5052397;28;20028;-75
2023/06/05 08:45:20;;;;;;;7.70;4.72;;;21.90;76.70;;;;;;5061700;28;20086;-76
2023/06/05 08:47:50;;;;;;;8.00;4.60;;;21.90;76.30;;;;;;5040319;28;20423;-77
2023/06/05 08:50:16;;;;;;;6.30;3.90;;;22.00;76.40;;;;;;5064874;28;20032;-75
2023/06/05 08:52:43;;;;;;;11.45;4.43;;;22.00;76.00;;;;;;5054016;28;20036;-76
2023/06/05 08:55:10;;;;;;;5.15;3.85;;;22.00;75.90;;;;;;5058603;28;20061;-77
2023/06/05 08:57:38;;;;;;;80.95;9.40;;;22.00;75.90;;;;;;5049660;28;20025;-77
2023/06/05 09:00:10;;;;;;;8.60;3.85;;;21.80;76.00;;;;;;5062434;28;20028;-76
2023/06/05 09:02:46;;;;;;;5.72;3.63;;;21.90;77.30;;;;;;5049647;28;20033;-76
2023/06/05 09:05:13;;;;;;;8.55;3.55;;;21.90;77.40;;;;;;5047708;28;20029;-77
2023/06/05 09:07:38;;;;;;;6.28;4.90;;;21.90;76.20;;;;;;5053207;28;20071;-76
2023/06/05 09:10:06;;;;;;;4.90;3.80;;;22.00;75.70;;;;;;5068633;28;20063;-76
2023/06/05 09:12:51;;;;;;;7.85;3.83;;;22.00;77.30;;;;;;5062717;28;20478;-75
2023/06/05 09:15:25;;;;;;;8.98;4.05;;;22.00;76.90;;;;;;5058277;28;20124;-75
2023/06/05 09:18:09;;;;;;;7.70;3.35;;;22.00;76.70;;;;;;5063269;28;20032;-75
2023/06/05 09:20:40;;;;;;;9.65;5.10;;;22.00;77.60;;;;;;5052177;28;20025;-78
2023/06/05 09:23:24;;;;;;;6.55;3.40;;;22.10;76.00;;;;;;5058361;28;20618;-78
2023/06/05 09:25:51;;;;;;;8.10;4.50;;;22.10;77.50;;;;;;5046450;28;20056;-78
2023/06/05 09:28:17;;;;;;;7.93;5.03;;;22.00;76.00;;;;;;5052477;28;20478;-76
2023/06/05 09:31:05;;;;;;;8.70;4.32;;;22.10;75.20;;;;;;5045606;28;20029;-78
2023/06/05 09:33:36;;;;;;;9.13;3.70;;;22.10;76.40;;;;;;5051810;28;20521;-77
2023/06/05 09:36:03;;;;;;;10.73;5.03;;;22.10;77.20;;;;;;5063477;28;20028;-78
2023/06/05 09:38:29;;;;;;;5.32;3.63;;;22.00;76.00;;;;;;5071189;28;20035;-78
2023/06/05 09:41:02;;;;;;;11.32;5.88;;;22.10;77.20;;;;;;5062848;28;20037;-77
2023/06/05 09:43:28;;;;;;;7.55;4.10;;;22.10;76.00;;;;;;5051452;28;20114;-78
2023/06/05 09:45:54;;;;;;;8.95;3.45;;;22.10;76.50;;;;;;5050457;28;20079;-76
2023/06/05 09:48:20;;;;;;;8.85;5.20;;;22.10;77.30;;;;;;5052141;28;20032;-78
2023/06/05 09:50:45;;;;;;;9.85;5.35;;;22.10;75.90;;;;;;5054940;28;20051;-75
2023/06/05 09:53:14;;;;;;;8.80;5.97;;;22.10;75.90;;;;;;5051599;28;20032;-78
2023/06/05 09:55:40;;;;;;;7.85;3.80;;;22.20;75.90;;;;;;5052936;28;20036;-78
2023/06/05 09:58:11;;;;;;;8.27;4.03;;;22.10;77.50;;;;;;5054823;28;20029;-77
2023/06/05 10:00:39;;;;;;;8.80;4.88;;;22.10;77.80;;;;;;5052153;28;20029;-78
2023/06/05 10:03:13;;;;;;;12.32;4.47;;;22.10;77.10;;;;;;5051915;28;20029;-78
2023/06/05 10:05:42;;;;;;;9.98;4.05;;;22.10;77.40;;;;;;5053383;28;20124;-72
2023/06/05 10:08:10;;;;;;;10.48;5.93;;;22.20;78.10;;;;;;5042263;28;20554;-73
2023/06/05 10:10:37;;;;;;;9.80;6.10;;;22.20;76.60;;;;;;5045852;28;20027;-73
2023/06/05 10:13:03;;;;;;;10.40;6.00;;;22.20;76.70;;;;;;5041934;28;20474;-73
2023/06/05 10:15:31;;;;;;;13.07;5.43;;;22.20;76.60;;;;;;5045905;28;20033;-73
2023/06/05 10:17:57;;;;;;;10.02;6.25;;;22.20;78.50;;;;;;5034263;28;20060;-72
2023/06/05 10:20:23;;;;;;;8.23;5.05;;;22.20;76.90;;;;;;5039716;28;20061;-73
2023/06/05 10:22:50;;;;;;;12.57;5.45;;;22.20;76.90;;;;;;5041481;28;20061;-72
2023/06/05 10:25:19;;;;;;;6.65;5.78;;;22.20;75.90;;;;;;5054592;28;20024;-72
2023/06/05 10:28:04;;;;;;;7.32;5.45;;;22.20;76.80;;;;;;5057615;28;20052;-73
2023/06/05 10:31:07;;;;;;;9.43;6.03;;;22.30;76.40;;;;;;5044239;28;20060;-72
2023/06/05 10:33:51;;;;;;;11.63;5.70;;;22.30;76.30;;;;;;5033906;28;20029;-72
2023/06/05 10:36:24;;;;;;;9.23;5.72;;;22.20;78.00;;;;;;5052528;28;20394;-72
2023/06/05 10:38:51;;;;;;;11.15;5.57;;;22.30;76.50;;;;;;5050973;28;20040;-72
2023/06/05 10:41:18;;;;;;;9.68;5.53;;;22.30;77.80;;;;;;5053529;28;20455;-72
2023/06/05 10:43:48;;;;;;;11.05;5.72;;;22.30;76.40;;;;;;5053382;28;20516;-76
2023/06/05 10:46:31;;;;;;;8.63;7.05;;;22.30;75.80;;;;;;5054483;28;20374;-73
2023/06/05 10:49:08;;;;;;;12.05;6.97;;;22.30;75.90;;;;;;5055037;28;20025;-73
2023/06/05 10:51:42;;;;;;;9.07;4.90;;;22.30;76.40;;;;;;5049764;28;20116;-73
2023/06/05 10:54:10;;;;;;;9.00;5.75;;;22.30;77.60;;;;;;5052719;28;20024;-72
2023/06/05 10:56:51;;;;;;;9.10;4.70;;;22.30;77.20;;;;;;5053391;28;20017;-73
2023/06/05 10:59:20;;;;;;;8.63;4.97;;;22.30;77.50;;;;;;5049673;28;20037;-72
2023/06/05 11:02:15;;;;;;;7.50;6.78;;;22.30;77.90;;;;;;5053340;28;20024;-72
2023/06/05 11:04:47;;;;;;;11.10;6.80;;;22.30;76.10;;;;;;5052464;28;20029;-72
2023/06/05 11:07:41;;;;;;;7.60;4.72;;;22.30;76.00;;;;;;5053400;28;20029;-72
2023/06/05 11:10:15;;;;;;;8.18;5.43;;;22.30;77.20;;;;;;5033533;28;20475;-72
2023/06/05 11:12:41;;;;;;;9.93;5.03;;;22.30;76.90;;;;;;5050214;28;20033;-73
2023/06/05 11:15:11;;;;;;;8.50;5.07;;;22.30;77.60;;;;;;5052675;28;20021;-73
2023/06/05 11:17:37;;;;;;;9.75;4.18;;;22.30;77.10;;;;;;5049579;28;20025;-73
2023/06/05 11:20:09;;;;;;;6.72;5.43;;;22.30;78.40;;;;;;5043691;28;20112;-75
2023/06/05 11:22:53;;;;;;;9.02;5.80;;;22.30;77.20;;;;;;5048637;28;20140;-72
2023/06/05 11:25:24;;;;;;;10.07;6.10;;;22.40;77.10;;;;;;5036413;28;20127;-73
2023/06/05 11:27:52;;;;;;;8.93;5.78;;;22.30;77.20;;;;;;5054037;28;20036;-73
2023/06/05 11:30:23;;;;;;;6.93;5.00;;;22.40;76.80;;;;;;5048032;28;20020;-73
2023/06/05 11:32:52;;;;;;;8.63;6.17;;;22.40;77.10;;;;;;5044472;28;20111;-72
2023/06/05 11:35:21;;;;;;;6.03;4.43;;;22.40;76.50;;;;;;5049491;28;20030;-73
2023/06/05 11:37:46;;;;;;;8.27;5.25;;;22.40;76.80;;;;;;5044031;28;20052;-73
2023/06/05 11:40:24;;;;;;;7.85;7.05;;;22.40;76.80;;;;;;5039786;28;20103;-73
2023/06/05 11:42:50;;;;;;;6.95;5.18;;;22.40;75.70;;;;;;5032789;28;20041;-72
2023/06/05 11:45:15;;;;;;;6.75;4.70;;;22.40;76.40;;;;;;5033328;28;20029;-72
2023/06/05 11:47:41;;;;;;;4.82;2.90;;;22.50;76.90;;;;;;5033276;28;20025;-73
2023/06/05 11:50:11;;;;;;;10.95;6.07;;;22.50;78.20;;;;;;5033760;28;20124;-72
2023/06/05 11:52:37;;;;;;;6.72;5.90;;;22.40;76.30;;;;;;5039582;28;20032;-72
2023/06/05 11:55:19;;;;;;;7.25;5.45;;;22.50;76.10;;;;;;5046916;28;20122;-75
2023/06/05 11:57:49;;;;;;;7.95;6.03;;;22.40;76.10;;;;;;5046403;28;20502;-73
2023/06/05 12:00:22;;;;;;;8.88;3.88;;;22.50;75.70;;;;;;5046079;28;20095;-73
2023/06/05 12:02:48;;;;;;;7.40;3.65;;;22.50;77.30;;;;;;5038959;28;20040;-72
2023/06/05 12:05:14;;;;;;;11.30;5.47;;;22.50;77.80;;;;;;5039374;28;20013;-77
2023/06/05 12:07:41;;;;;;;11.52;6.95;;;22.50;76.50;;;;;;5055267;28;20064;-75
2023/06/05 12:10:08;;;;;;;6.90;5.30;;;22.50;76.30;;;;;;5050925;28;20551;-74
2023/06/05 12:12:35;;;;;;;6.38;5.43;;;22.50;76.40;;;;;;5050855;28;20024;-76
2023/06/05 12:15:14;;;;;;;11.05;6.20;;;22.50;76.80;;;;;;5052627;28;20022;-73
2023/06/05 12:17:40;;;;;;;7.95;6.82;;;22.50;76.50;;;;;;5049952;28;20028;-73
2023/06/05 12:20:08;;;;;;;6.90;4.80;;;22.50;75.00;;;;;;5052035;28;20100;-73
2023/06/05 12:22:34;;;;;;;10.15;6.57;;;22.50;76.00;;;;;;5052126;28;20037;-72
2023/06/05 12:25:21;;;;;;;7.65;5.22;;;22.50;77.00;;;;;;5051695;28;20020;-73
2023/06/05 12:27:52;;;;;;;5.32;3.30;;;22.60;77.00;;;;;;5051344;28;20041;-73
2023/06/05 12:30:19;;;;;;;8.73;4.95;;;22.60;77.20;;;;;;5052225;28;20028;-73
2023/06/05 12:32:45;;;;;;;9.40;6.43;;;22.60;75.90;;;;;;5046201;28;20029;-73
2023/06/05 12:35:24;;;;;;;7.78;5.80;;;22.60;76.00;;;;;;5044149;28;20022;-73
2023/06/05 12:37:51;;;;;;;5.05;4.47;;;22.60;76.40;;;;;;5052047;28;20036;-74
2023/06/05 12:40:20;;;;;;;7.18;4.45;;;22.60;77.10;;;;;;5055526;28;20409;-73
2023/06/05 12:42:48;;;;;;;6.10;3.22;;;22.60;77.30;;;;;;5055708;28;20128;-73
2023/06/05 12:45:15;;;;;;;6.68;3.90;;;22.60;77.60;;;;;;5051869;28;20025;-73
2023/06/05 12:47:42;;;;;;;6.80;4.40;;;22.60;77.40;;;;;;5036507;28;20030;-73
2023/06/05 12:50:11;;;;;;;6.75;4.22;;;22.60;77.10;;;;;;5036765;28;20025;-73